sensor_id;sensor_type;location;lat;lon;timestamp;temperature;humidity
4695;DHT22;2361;49.540;8.390;2023-12-20T00:01:53;6.90;99.90
4695;DHT22;2361;49.540;8.390;2023-12-20T00:04:15;6.80;99.90
4695;DHT22;2361;49.540;8.390;2023-12-20T00:06:37;6.80;99.90
4695;DHT22;2361;49.540;8.390;2023-12-20T00:08:59;6.80;99.90
4695;DHT22;2361;49.540;8.390;2023-12-20T00:11:21;6.80;99.90
4695;DHT22;2361;49.540;8.390;2023-12-20T00:13:43;6.80;99.90
4695;DHT22;2361;49.540;8.390;2023-12-20T00:16:07;6.80;99.90
4695;DHT22;2361;49.540;8.390;2023-12-20T00:18:29;6.80;99.90
4695;DHT22;2361;49.540;8.390;2023-12-20T00:20:51;6.80;99.90
4695;DHT22;2361;49.540;8.390;2023-12-20T00:23:13;6.80;99.90
4695;DHT22;2361;49.540;8.390;2023-12-20T00:25:35;6.80;99.90
4695;DHT22;2361;49.540;8.390;2023-12-20T00:27:57;6.90;99.90
4695;DHT22;2361;49.540;8.390;2023-12-20T00:30:19;6.80;99.90
4695;DHT22;2361;49.540;8.390;2023-12-20T00:32:41;6.90;99.90
4695;DHT22;2361;49.540;8.390;2023-12-20T00:35:08;6.90;99.90
4695;DHT22;2361;49.540;8.390;2023-12-20T00:37:29;6.90;99.90
4695;DHT22;2361;49.540;8.390;2023-12-20T00:39:51;6.90;99.90
4695;DHT22;2361;49.540;8.390;2023-12-20T00:42:13;6.90;99.90
4695;DHT22;2361;49.540;8.390;2023-12-20T00:44:35;6.90;99.90
4695;DHT22;2361;49.540;8.390;2023-12-20T00:46:57;6.90;99.90
4695;DHT22;2361;49.540;8.390;2023-12-20T00:49:19;6.90;99.90
4695;DHT22;2361;49.540;8.390;2023-12-20T00:51:41;6.90;99.90
4695;DHT22;2361;49.540;8.390;2023-12-20T00:54:03;7.00;99.90
4695;DHT22;2361;49.540;8.390;2023-12-20T00:56:25;6.90;99.90
4695;DHT22;2361;49.540;8.390;2023-12-20T00:58:47;6.90;99.90
4695;DHT22;2361;49.540;8.390;2023-12-20T01:01:09;6.90;99.90
4695;DHT22;2361;49.540;8.390;2023-12-20T01:03:31;6.90;99.90
4695;DHT22;2361;49.540;8.390;2023-12-20T01:05:53;6.90;99.90
4695;DHT22;2361;49.540;8.390;2023-12-20T01:08:15;6.90;99.90
4695;DHT22;2361;49.540;8.390;2023-12-20T01:10:37;6.90;99.90
4695;DHT22;2361;49.540;8.390;2023-12-20T01:12:59;6.90;99.90
4695;DHT22;2361;49.540;8.390;2023-12-20T01:15:21;6.90;99.90
4695;DHT22;2361;49.540;8.390;2023-12-20T01:17:43;6.90;99.90
4695;DHT22;2361;49.540;8.390;2023-12-20T01:20:06;6.90;99.90
4695;DHT22;2361;49.540;8.390;2023-12-20T01:22:28;6.90;99.90
4695;DHT22;2361;49.540;8.390;2023-12-20T01:24:50;6.90;99.90
4695;DHT22;2361;49.540;8.390;2023-12-20T01:27:12;6.80;99.90
4695;DHT22;2361;49.540;8.390;2023-12-20T01:29:34;6.80;99.90
4695;DHT22;2361;49.540;8.390;2023-12-20T01:31:56;6.90;99.90
4695;DHT22;2361;49.540;8.390;2023-12-20T01:34:18;6.90;99.90
4695;DHT22;2361;49.540;8.390;2023-12-20T01:36:40;6.90;99.90
4695;DHT22;2361;49.540;8.390;2023-12-20T01:39:02;6.80;99.90
4695;DHT22;2361;49.540;8.390;2023-12-20T01:41:28;6.80;99.90
4695;DHT22;2361;49.540;8.390;2023-12-20T01:43:50;6.70;99.90
4695;DHT22;2361;49.540;8.390;2023-12-20T01:46:12;6.80;99.90
4695;DHT22;2361;49.540;8.390;2023-12-20T01:48:34;6.80;99.90
4695;DHT22;2361;49.540;8.390;2023-12-20T01:50:57;6.80;99.90
4695;DHT22;2361;49.540;8.390;2023-12-20T01:53:21;6.80;99.90
4695;DHT22;2361;49.540;8.390;2023-12-20T01:55:47;6.70;99.90
4695;DHT22;2361;49.540;8.390;2023-12-20T01:58:12;6.70;99.90
4695;DHT22;2361;49.540;8.390;2023-12-20T02:00:36;6.70;99.90
4695;DHT22;2361;49.540;8.390;2023-12-20T02:03:01;6.70;99.90
4695;DHT22;2361;49.540;8.390;2023-12-20T02:05:24;6.70;99.90
4695;DHT22;2361;49.540;8.390;2023-12-20T02:07:47;6.70;99.90
4695;DHT22;2361;49.540;8.390;2023-12-20T02:10:09;6.70;99.90
4695;DHT22;2361;49.540;8.390;2023-12-20T02:12:31;6.70;99.90
4695;DHT22;2361;49.540;8.390;2023-12-20T02:14:53;6.70;99.90
4695;DHT22;2361;49.540;8.390;2023-12-20T02:17:16;6.80;99.90
4695;DHT22;2361;49.540;8.390;2023-12-20T02:19:38;6.80;99.90
4695;DHT22;2361;49.540;8.390;2023-12-20T02:22:08;6.80;99.90
4695;DHT22;2361;49.540;8.390;2023-12-20T02:24:33;6.70;99.90
4695;DHT22;2361;49.540;8.390;2023-12-20T02:26:55;6.70;99.90
4695;DHT22;2361;49.540;8.390;2023-12-20T02:29:17;6.60;99.90
4695;DHT22;2361;49.540;8.390;2023-12-20T02:31:39;6.60;99.90
4695;DHT22;2361;49.540;8.390;2023-12-20T02:34:01;6.60;99.90
4695;DHT22;2361;49.540;8.390;2023-12-20T02:36:23;6.60;99.90
4695;DHT22;2361;49.540;8.390;2023-12-20T02:38:45;6.60;99.90
4695;DHT22;2361;49.540;8.390;2023-12-20T02:41:06;6.50;99.90
4695;DHT22;2361;49.540;8.390;2023-12-20T02:43:28;6.50;99.90
4695;DHT22;2361;49.540;8.390;2023-12-20T02:45:50;6.50;99.90
4695;DHT22;2361;49.540;8.390;2023-12-20T02:48:12;6.50;99.90
4695;DHT22;2361;49.540;8.390;2023-12-20T02:50:34;6.50;99.90
4695;DHT22;2361;49.540;8.390;2023-12-20T02:52:56;6.50;99.90
4695;DHT22;2361;49.540;8.390;2023-12-20T02:55:18;6.50;99.90
4695;DHT22;2361;49.540;8.390;2023-12-20T02:57:40;6.40;99.90
4695;DHT22;2361;49.540;8.390;2023-12-20T03:00:04;6.40;99.90
4695;DHT22;2361;49.540;8.390;2023-12-20T03:02:26;6.40;99.90
4695;DHT22;2361;49.540;8.390;2023-12-20T03:04:48;6.50;99.90
4695;DHT22;2361;49.540;8.390;2023-12-20T03:07:10;6.50;99.90
4695;DHT22;2361;49.540;8.390;2023-12-20T03:09:33;6.50;99.90
4695;DHT22;2361;49.540;8.390;2023-12-20T03:12:15;6.50;99.90
4695;DHT22;2361;49.540;8.390;2023-12-20T03:14:37;6.50;99.90
4695;DHT22;2361;49.540;8.390;2023-12-20T03:16:59;6.50;99.90
4695;DHT22;2361;49.540;8.390;2023-12-20T03:19:21;6.40;99.90
4695;DHT22;2361;49.540;8.390;2023-12-20T03:21:43;6.40;99.90
4695;DHT22;2361;49.540;8.390;2023-12-20T03:24:05;6.50;99.90
4695;DHT22;2361;49.540;8.390;2023-12-20T03:26:27;6.50;99.90
4695;DHT22;2361;49.540;8.390;2023-12-20T03:28:49;6.60;99.90
4695;DHT22;2361;49.540;8.390;2023-12-20T03:31:11;6.60;99.90
4695;DHT22;2361;49.540;8.390;2023-12-20T03:33:33;6.60;99.90
4695;DHT22;2361;49.540;8.390;2023-12-20T03:35:55;6.50;99.90
4695;DHT22;2361;49.540;8.390;2023-12-20T03:38:17;6.40;99.90
4695;DHT22;2361;49.540;8.390;2023-12-20T03:40:39;6.50;99.90
4695;DHT22;2361;49.540;8.390;2023-12-20T03:43:01;6.50;99.90
4695;DHT22;2361;49.540;8.390;2023-12-20T03:45:23;6.50;99.90
4695;DHT22;2361;49.540;8.390;2023-12-20T03:47:45;6.60;99.90
4695;DHT22;2361;49.540;8.390;2023-12-20T03:50:08;6.60;99.90
4695;DHT22;2361;49.540;8.390;2023-12-20T03:52:30;6.60;99.90
4695;DHT22;2361;49.540;8.390;2023-12-20T03:54:52;6.60;99.90
4695;DHT22;2361;49.540;8.390;2023-12-20T03:57:14;6.60;99.90
4695;DHT22;2361;49.540;8.390;2023-12-20T03:59:39;6.60;99.90
4695;DHT22;2361;49.540;8.390;2023-12-20T04:02:00;6.70;99.90
4695;DHT22;2361;49.540;8.390;2023-12-20T04:04:23;6.70;99.90
4695;DHT22;2361;49.540;8.390;2023-12-20T04:06:45;6.70;99.90
4695;DHT22;2361;49.540;8.390;2023-12-20T04:09:07;6.70;99.90
4695;DHT22;2361;49.540;8.390;2023-12-20T04:11:30;6.70;99.90
4695;DHT22;2361;49.540;8.390;2023-12-20T04:13:52;6.70;99.90
4695;DHT22;2361;49.540;8.390;2023-12-20T04:16:14;6.70;99.90
4695;DHT22;2361;49.540;8.390;2023-12-20T04:18:36;6.70;99.90
4695;DHT22;2361;49.540;8.390;2023-12-20T04:20:58;6.70;99.90
4695;DHT22;2361;49.540;8.390;2023-12-20T04:23:20;6.70;99.90
4695;DHT22;2361;49.540;8.390;2023-12-20T04:25:42;6.70;99.90
4695;DHT22;2361;49.540;8.390;2023-12-20T04:28:04;6.80;99.90
4695;DHT22;2361;49.540;8.390;2023-12-20T04:30:26;6.80;99.90
4695;DHT22;2361;49.540;8.390;2023-12-20T04:32:48;6.80;99.90
4695;DHT22;2361;49.540;8.390;2023-12-20T04:35:10;6.90;99.90
4695;DHT22;2361;49.540;8.390;2023-12-20T04:37:32;6.80;99.90
4695;DHT22;2361;49.540;8.390;2023-12-20T04:39:54;6.90;99.90
4695;DHT22;2361;49.540;8.390;2023-12-20T04:42:16;6.90;99.90
4695;DHT22;2361;49.540;8.390;2023-12-20T04:44:38;6.90;99.90
4695;DHT22;2361;49.540;8.390;2023-12-20T04:47:01;7.00;99.90
4695;DHT22;2361;49.540;8.390;2023-12-20T04:49:23;6.90;99.90
4695;DHT22;2361;49.540;8.390;2023-12-20T04:51:45;7.00;99.90
4695;DHT22;2361;49.540;8.390;2023-12-20T04:54:07;6.90;99.90
4695;DHT22;2361;49.540;8.390;2023-12-20T04:56:28;6.90;99.90
4695;DHT22;2361;49.540;8.390;2023-12-20T04:58:50;7.00;99.90
4695;DHT22;2361;49.540;8.390;2023-12-20T05:01:12;7.00;99.90
4695;DHT22;2361;49.540;8.390;2023-12-20T05:03:35;7.00;99.90
4695;DHT22;2361;49.540;8.390;2023-12-20T05:05:57;7.00;99.90
4695;DHT22;2361;49.540;8.390;2023-12-20T05:08:19;7.10;99.90
4695;DHT22;2361;49.540;8.390;2023-12-20T05:10:41;7.10;99.90
4695;DHT22;2361;49.540;8.390;2023-12-20T05:13:03;7.10;99.90
4695;DHT22;2361;49.540;8.390;2023-12-20T05:15:25;7.10;99.90
4695;DHT22;2361;49.540;8.390;2023-12-20T05:17:47;7.10;99.90
4695;DHT22;2361;49.540;8.390;2023-12-20T05:20:10;7.10;99.90
4695;DHT22;2361;49.540;8.390;2023-12-20T05:22:32;7.10;99.90
4695;DHT22;2361;49.540;8.390;2023-12-20T05:24:54;7.10;99.90
4695;DHT22;2361;49.540;8.390;2023-12-20T05:27:16;7.10;99.90
4695;DHT22;2361;49.540;8.390;2023-12-20T05:29:38;7.10;99.90
4695;DHT22;2361;49.540;8.390;2023-12-20T05:32:00;7.10;99.90
4695;DHT22;2361;49.540;8.390;2023-12-20T05:34:22;7.20;99.90
4695;DHT22;2361;49.540;8.390;2023-12-20T05:36:44;7.20;99.90
4695;DHT22;2361;49.540;8.390;2023-12-20T05:39:06;7.20;99.90
4695;DHT22;2361;49.540;8.390;2023-12-20T05:41:29;7.20;99.90
4695;DHT22;2361;49.540;8.390;2023-12-20T05:43:52;7.20;99.90
4695;DHT22;2361;49.540;8.390;2023-12-20T05:46:13;7.20;99.90
4695;DHT22;2361;49.540;8.390;2023-12-20T05:48:35;7.20;99.90
4695;DHT22;2361;49.540;8.390;2023-12-20T05:50:57;7.10;99.90
4695;DHT22;2361;49.540;8.390;2023-12-20T05:53:19;7.10;99.90
4695;DHT22;2361;49.540;8.390;2023-12-20T05:55:44;7.10;99.90
4695;DHT22;2361;49.540;8.390;2023-12-20T05:58:06;7.10;99.90
4695;DHT22;2361;49.540;8.390;2023-12-20T06:00:28;7.10;99.90
4695;DHT22;2361;49.540;8.390;2023-12-20T06:02:50;7.10;99.90
4695;DHT22;2361;49.540;8.390;2023-12-20T06:05:12;7.00;99.90
4695;DHT22;2361;49.540;8.390;2023-12-20T06:07:34;7.00;99.90
4695;DHT22;2361;49.540;8.390;2023-12-20T06:09:56;7.00;99.90
4695;DHT22;2361;49.540;8.390;2023-12-20T06:12:18;7.00;99.90
4695;DHT22;2361;49.540;8.390;2023-12-20T06:14:40;6.90;99.90
4695;DHT22;2361;49.540;8.390;2023-12-20T06:17:02;6.80;99.90
4695;DHT22;2361;49.540;8.390;2023-12-20T06:19:24;6.70;99.90
4695;DHT22;2361;49.540;8.390;2023-12-20T06:21:46;6.60;99.90
4695;DHT22;2361;49.540;8.390;2023-12-20T06:24:08;6.60;99.90
4695;DHT22;2361;49.540;8.390;2023-12-20T06:26:31;6.50;99.90
4695;DHT22;2361;49.540;8.390;2023-12-20T06:28:53;6.50;99.90
4695;DHT22;2361;49.540;8.390;2023-12-20T06:31:14;6.50;99.90
4695;DHT22;2361;49.540;8.390;2023-12-20T06:33:38;6.50;99.90
4695;DHT22;2361;49.540;8.390;2023-12-20T06:36:03;6.50;99.90
4695;DHT22;2361;49.540;8.390;2023-12-20T06:38:25;6.40;99.90
4695;DHT22;2361;49.540;8.390;2023-12-20T06:40:47;6.30;99.90
4695;DHT22;2361;49.540;8.390;2023-12-20T06:43:09;6.30;99.90
4695;DHT22;2361;49.540;8.390;2023-12-20T06:45:46;6.30;99.90
4695;DHT22;2361;49.540;8.390;2023-12-20T06:48:08;6.30;99.90
4695;DHT22;2361;49.540;8.390;2023-12-20T06:50:32;6.30;99.90
4695;DHT22;2361;49.540;8.390;2023-12-20T06:52:54;6.20;99.90
4695;DHT22;2361;49.540;8.390;2023-12-20T06:55:16;6.20;99.90
4695;DHT22;2361;49.540;8.390;2023-12-20T06:57:39;6.20;99.90
4695;DHT22;2361;49.540;8.390;2023-12-20T07:00:01;6.20;99.90
4695;DHT22;2361;49.540;8.390;2023-12-20T07:02:23;6.20;99.90
4695;DHT22;2361;49.540;8.390;2023-12-20T07:04:45;6.20;99.90
4695;DHT22;2361;49.540;8.390;2023-12-20T07:07:07;6.20;99.90
4695;DHT22;2361;49.540;8.390;2023-12-20T07:09:29;6.10;99.90
4695;DHT22;2361;49.540;8.390;2023-12-20T07:11:51;6.10;99.90
4695;DHT22;2361;49.540;8.390;2023-12-20T07:14:13;6.10;99.90
4695;DHT22;2361;49.540;8.390;2023-12-20T07:16:35;6.10;99.90
4695;DHT22;2361;49.540;8.390;2023-12-20T07:18:57;6.10;99.90
4695;DHT22;2361;49.540;8.390;2023-12-20T07:21:20;6.10;99.90
4695;DHT22;2361;49.540;8.390;2023-12-20T07:23:42;6.10;99.90
4695;DHT22;2361;49.540;8.390;2023-12-20T07:26:04;6.10;99.90
4695;DHT22;2361;49.540;8.390;2023-12-20T07:28:26;6.10;99.90
4695;DHT22;2361;49.540;8.390;2023-12-20T07:30:48;6.10;99.90
4695;DHT22;2361;49.540;8.390;2023-12-20T07:33:10;6.10;99.90
4695;DHT22;2361;49.540;8.390;2023-12-20T07:35:34;6.20;99.90
4695;DHT22;2361;49.540;8.390;2023-12-20T07:37:56;6.20;99.90
4695;DHT22;2361;49.540;8.390;2023-12-20T07:40:18;6.20;99.90
4695;DHT22;2361;49.540;8.390;2023-12-20T07:42:40;6.20;99.90
4695;DHT22;2361;49.540;8.390;2023-12-20T07:45:02;6.30;99.90
4695;DHT22;2361;49.540;8.390;2023-12-20T07:47:25;6.30;99.90
4695;DHT22;2361;49.540;8.390;2023-12-20T07:49:48;6.30;99.90
4695;DHT22;2361;49.540;8.390;2023-12-20T07:52:11;6.40;99.90
4695;DHT22;2361;49.540;8.390;2023-12-20T07:54:32;6.50;99.90
4695;DHT22;2361;49.540;8.390;2023-12-20T07:56:56;6.50;99.90
4695;DHT22;2361;49.540;8.390;2023-12-20T07:59:18;6.60;99.90
4695;DHT22;2361;49.540;8.390;2023-12-20T08:01:53;6.70;99.90
4695;DHT22;2361;49.540;8.390;2023-12-20T08:04:15;6.80;99.90
4695;DHT22;2361;49.540;8.390;2023-12-20T08:06:37;6.80;99.90
4695;DHT22;2361;49.540;8.390;2023-12-20T08:08:59;6.90;99.90
4695;DHT22;2361;49.540;8.390;2023-12-20T08:11:27;7.00;99.90
4695;DHT22;2361;49.540;8.390;2023-12-20T08:13:50;7.00;99.90
4695;DHT22;2361;49.540;8.390;2023-12-20T08:16:12;7.00;99.90
4695;DHT22;2361;49.540;8.390;2023-12-20T08:18:35;7.10;99.90
4695;DHT22;2361;49.540;8.390;2023-12-20T08:20:57;7.20;99.90
4695;DHT22;2361;49.540;8.390;2023-12-20T08:23:19;7.30;99.90
4695;DHT22;2361;49.540;8.390;2023-12-20T08:25:45;8.00;99.90
4695;DHT22;2361;49.540;8.390;2023-12-20T08:28:07;9.30;99.90
4695;DHT22;2361;49.540;8.390;2023-12-20T08:30:29;10.70;99.90
4695;DHT22;2361;49.540;8.390;2023-12-20T08:32:52;11.90;99.90
4695;DHT22;2361;49.540;8.390;2023-12-20T08:35:14;13.40;99.90
4695;DHT22;2361;49.540;8.390;2023-12-20T08:37:36;14.90;99.90
4695;DHT22;2361;49.540;8.390;2023-12-20T08:39:58;16.30;99.90
4695;DHT22;2361;49.540;8.390;2023-12-20T08:42:20;17.40;99.90
4695;DHT22;2361;49.540;8.390;2023-12-20T08:44:42;18.70;99.90
4695;DHT22;2361;49.540;8.390;2023-12-20T08:47:04;19.60;97.40
4695;DHT22;2361;49.540;8.390;2023-12-20T08:49:27;20.40;94.40
4695;DHT22;2361;49.540;8.390;2023-12-20T08:51:49;20.90;92.40
4695;DHT22;2361;49.540;8.390;2023-12-20T08:54:11;21.50;90.10
4695;DHT22;2361;49.540;8.390;2023-12-20T08:56:34;21.90;86.80
4695;DHT22;2361;49.540;8.390;2023-12-20T08:58:56;21.90;84.60
4695;DHT22;2361;49.540;8.390;2023-12-20T09:01:18;21.90;82.90
4695;DHT22;2361;49.540;8.390;2023-12-20T09:03:40;21.80;81.50
4695;DHT22;2361;49.540;8.390;2023-12-20T09:06:03;21.00;82.10
4695;DHT22;2361;49.540;8.390;2023-12-20T09:08:25;19.40;84.10
4695;DHT22;2361;49.540;8.390;2023-12-20T09:10:47;17.50;88.60
4695;DHT22;2361;49.540;8.390;2023-12-20T09:13:09;15.90;91.40
4695;DHT22;2361;49.540;8.390;2023-12-20T09:15:31;14.50;94.20
4695;DHT22;2361;49.540;8.390;2023-12-20T09:17:57;13.30;97.50
4695;DHT22;2361;49.540;8.390;2023-12-20T09:20:20;12.40;99.90
4695;DHT22;2361;49.540;8.390;2023-12-20T09:22:42;11.70;99.90
4695;DHT22;2361;49.540;8.390;2023-12-20T09:25:05;11.30;99.90
4695;DHT22;2361;49.540;8.390;2023-12-20T09:27:27;11.10;99.90
4695;DHT22;2361;49.540;8.390;2023-12-20T09:29:49;10.90;99.90
4695;DHT22;2361;49.540;8.390;2023-12-20T09:32:11;10.70;99.90
4695;DHT22;2361;49.540;8.390;2023-12-20T09:34:33;10.50;99.90
4695;DHT22;2361;49.540;8.390;2023-12-20T09:36:55;10.50;99.90
4695;DHT22;2361;49.540;8.390;2023-12-20T09:39:18;10.40;99.90
4695;DHT22;2361;49.540;8.390;2023-12-20T09:41:44;10.30;99.90
4695;DHT22;2361;49.540;8.390;2023-12-20T09:44:08;10.30;99.90
4695;DHT22;2361;49.540;8.390;2023-12-20T09:46:37;10.20;99.90
4695;DHT22;2361;49.540;8.390;2023-12-20T09:49:01;10.00;99.90
4695;DHT22;2361;49.540;8.390;2023-12-20T09:51:23;9.80;99.90
4695;DHT22;2361;49.540;8.390;2023-12-20T09:53:47;9.60;99.90
4695;DHT22;2361;49.540;8.390;2023-12-20T09:56:10;9.40;99.90
4695;DHT22;2361;49.540;8.390;2023-12-20T09:58:36;9.30;99.90
4695;DHT22;2361;49.540;8.390;2023-12-20T10:01:00;9.30;99.90
4695;DHT22;2361;49.540;8.390;2023-12-20T10:03:25;9.20;99.90
4695;DHT22;2361;49.540;8.390;2023-12-20T10:05:54;9.10;99.90
4695;DHT22;2361;49.540;8.390;2023-12-20T10:08:16;8.90;99.90
4695;DHT22;2361;49.540;8.390;2023-12-20T10:10:38;8.80;99.90
4695;DHT22;2361;49.540;8.390;2023-12-20T10:13:10;8.80;99.90
4695;DHT22;2361;49.540;8.390;2023-12-20T10:15:37;8.70;99.90
4695;DHT22;2361;49.540;8.390;2023-12-20T10:17:59;8.60;99.90
4695;DHT22;2361;49.540;8.390;2023-12-20T10:20:23;8.60;99.90
4695;DHT22;2361;49.540;8.390;2023-12-20T10:22:45;8.60;99.90
4695;DHT22;2361;49.540;8.390;2023-12-20T10:25:08;8.60;99.90
4695;DHT22;2361;49.540;8.390;2023-12-20T10:27:30;8.60;99.90
4695;DHT22;2361;49.540;8.390;2023-12-20T10:29:51;8.70;99.90
4695;DHT22;2361;49.540;8.390;2023-12-20T10:32:23;8.70;99.90
4695;DHT22;2361;49.540;8.390;2023-12-20T10:34:47;8.70;99.90
4695;DHT22;2361;49.540;8.390;2023-12-20T10:37:09;8.70;99.90
4695;DHT22;2361;49.540;8.390;2023-12-20T10:39:31;8.80;99.90
4695;DHT22;2361;49.540;8.390;2023-12-20T10:41:53;8.80;99.90
4695;DHT22;2361;49.540;8.390;2023-12-20T10:44:15;8.90;99.90
4695;DHT22;2361;49.540;8.390;2023-12-20T10:46:39;8.80;99.90
4695;DHT22;2361;49.540;8.390;2023-12-20T10:49:05;8.80;99.90
4695;DHT22;2361;49.540;8.390;2023-12-20T10:51:28;8.70;99.90
4695;DHT22;2361;49.540;8.390;2023-12-20T10:53:54;8.70;99.90
4695;DHT22;2361;49.540;8.390;2023-12-20T10:56:17;8.70;99.90
4695;DHT22;2361;49.540;8.390;2023-12-20T10:58:42;8.70;99.90
4695;DHT22;2361;49.540;8.390;2023-12-20T11:01:05;8.60;99.90
4695;DHT22;2361;49.540;8.390;2023-12-20T11:03:27;8.60;99.90
4695;DHT22;2361;49.540;8.390;2023-12-20T11:06:02;8.60;99.90
4695;DHT22;2361;49.540;8.390;2023-12-20T11:11:26;8.50;99.90
4695;DHT22;2361;49.540;8.390;2023-12-20T11:14:07;8.60;99.90
4695;DHT22;2361;49.540;8.390;2023-12-20T11:16:33;8.50;99.90
4695;DHT22;2361;49.540;8.390;2023-12-20T11:19:12;8.50;99.90
4695;DHT22;2361;49.540;8.390;2023-12-20T11:21:37;8.50;99.90
4695;DHT22;2361;49.540;8.390;2023-12-20T11:23:59;8.50;99.90
4695;DHT22;2361;49.540;8.390;2023-12-20T11:26:27;8.60;99.90
4695;DHT22;2361;49.540;8.390;2023-12-20T11:28:50;8.60;99.90
4695;DHT22;2361;49.540;8.390;2023-12-20T11:31:14;8.60;99.90
4695;DHT22;2361;49.540;8.390;2023-12-20T11:33:38;8.60;99.90
4695;DHT22;2361;49.540;8.390;2023-12-20T11:36:00;8.60;99.90
4695;DHT22;2361;49.540;8.390;2023-12-20T11:38:23;8.60;99.90
4695;DHT22;2361;49.540;8.390;2023-12-20T11:40:51;8.60;99.90
4695;DHT22;2361;49.540;8.390;2023-12-20T11:43:35;8.70;99.90
4695;DHT22;2361;49.540;8.390;2023-12-20T11:46:05;8.70;99.90
4695;DHT22;2361;49.540;8.390;2023-12-20T11:48:30;8.70;99.90
4695;DHT22;2361;49.540;8.390;2023-12-20T11:50:53;8.70;99.90
4695;DHT22;2361;49.540;8.390;2023-12-20T11:53:14;8.70;99.90
4695;DHT22;2361;49.540;8.390;2023-12-20T11:55:36;8.70;99.90
4695;DHT22;2361;49.540;8.390;2023-12-20T11:57:59;8.70;99.90
4695;DHT22;2361;49.540;8.390;2023-12-20T12:00:21;8.60;99.90
4695;DHT22;2361;49.540;8.390;2023-12-20T12:02:43;8.60;99.90
4695;DHT22;2361;49.540;8.390;2023-12-20T12:05:08;8.60;99.90
4695;DHT22;2361;49.540;8.390;2023-12-20T12:07:31;8.60;99.90
4695;DHT22;2361;49.540;8.390;2023-12-20T12:09:53;8.50;99.90
4695;DHT22;2361;49.540;8.390;2023-12-20T12:12:15;8.50;99.90
4695;DHT22;2361;49.540;8.390;2023-12-20T12:14:38;8.50;99.90
4695;DHT22;2361;49.540;8.390;2023-12-20T12:17:02;8.50;99.90
4695;DHT22;2361;49.540;8.390;2023-12-20T12:19:25;8.50;99.90
4695;DHT22;2361;49.540;8.390;2023-12-20T12:21:48;8.50;99.90
4695;DHT22;2361;49.540;8.390;2023-12-20T12:24:11;8.50;99.90
4695;DHT22;2361;49.540;8.390;2023-12-20T12:26:33;8.50;99.90
4695;DHT22;2361;49.540;8.390;2023-12-20T12:28:55;8.50;99.90
4695;DHT22;2361;49.540;8.390;2023-12-20T12:31:17;8.50;99.90
4695;DHT22;2361;49.540;8.390;2023-12-20T12:33:39;8.40;99.90
4695;DHT22;2361;49.540;8.390;2023-12-20T12:36:02;8.40;99.90
4695;DHT22;2361;49.540;8.390;2023-12-20T12:38:27;8.40;99.90
4695;DHT22;2361;49.540;8.390;2023-12-20T12:40:49;8.40;99.90
4695;DHT22;2361;49.540;8.390;2023-12-20T12:43:11;8.40;99.90
4695;DHT22;2361;49.540;8.390;2023-12-20T12:45:34;8.30;99.90
4695;DHT22;2361;49.540;8.390;2023-12-20T12:47:56;8.30;99.90
4695;DHT22;2361;49.540;8.390;2023-12-20T12:50:18;8.40;99.90
4695;DHT22;2361;49.540;8.390;2023-12-20T12:52:40;8.40;99.90
4695;DHT22;2361;49.540;8.390;2023-12-20T12:55:03;8.30;99.90
4695;DHT22;2361;49.540;8.390;2023-12-20T12:57:26;8.30;99.90
4695;DHT22;2361;49.540;8.390;2023-12-20T12:59:48;8.40;99.90
4695;DHT22;2361;49.540;8.390;2023-12-20T13:02:10;8.40;99.90
4695;DHT22;2361;49.540;8.390;2023-12-20T13:04:32;8.40;99.90
4695;DHT22;2361;49.540;8.390;2023-12-20T13:06:54;8.30;99.90
4695;DHT22;2361;49.540;8.390;2023-12-20T13:09:17;8.30;99.90
4695;DHT22;2361;49.540;8.390;2023-12-20T13:11:40;8.40;99.90
4695;DHT22;2361;49.540;8.390;2023-12-20T13:14:02;8.30;99.90
4695;DHT22;2361;49.540;8.390;2023-12-20T13:16:25;8.30;99.90
4695;DHT22;2361;49.540;8.390;2023-12-20T13:18:47;8.40;99.90
4695;DHT22;2361;49.540;8.390;2023-12-20T13:21:10;8.30;99.90
4695;DHT22;2361;49.540;8.390;2023-12-20T13:23:31;8.40;99.90
4695;DHT22;2361;49.540;8.390;2023-12-20T13:25:53;8.40;99.90
4695;DHT22;2361;49.540;8.390;2023-12-20T13:28:15;8.40;99.90
4695;DHT22;2361;49.540;8.390;2023-12-20T13:30:37;8.50;99.90
4695;DHT22;2361;49.540;8.390;2023-12-20T13:33:00;8.50;99.90
4695;DHT22;2361;49.540;8.390;2023-12-20T13:35:22;8.50;99.90
4695;DHT22;2361;49.540;8.390;2023-12-20T13:37:44;8.50;99.90
4695;DHT22;2361;49.540;8.390;2023-12-20T13:40:08;8.50;99.90
4695;DHT22;2361;49.540;8.390;2023-12-20T13:42:30;8.60;99.90
4695;DHT22;2361;49.540;8.390;2023-12-20T13:44:52;8.60;99.90
4695;DHT22;2361;49.540;8.390;2023-12-20T13:47:13;8.60;99.90
4695;DHT22;2361;49.540;8.390;2023-12-20T13:49:35;8.60;99.90
4695;DHT22;2361;49.540;8.390;2023-12-20T13:51:57;8.70;99.90
4695;DHT22;2361;49.540;8.390;2023-12-20T13:54:20;8.60;99.90
4695;DHT22;2361;49.540;8.390;2023-12-20T13:56:43;8.60;99.90
4695;DHT22;2361;49.540;8.390;2023-12-20T13:59:25;8.50;99.90
4695;DHT22;2361;49.540;8.390;2023-12-20T14:01:47;8.50;99.90
4695;DHT22;2361;49.540;8.390;2023-12-20T14:04:11;8.50;99.90
4695;DHT22;2361;49.540;8.390;2023-12-20T14:06:53;8.50;99.90
4695;DHT22;2361;49.540;8.390;2023-12-20T14:09:15;8.60;99.90
4695;DHT22;2361;49.540;8.390;2023-12-20T14:11:37;8.60;99.90
4695;DHT22;2361;49.540;8.390;2023-12-20T14:14:02;8.50;99.90
4695;DHT22;2361;49.540;8.390;2023-12-20T14:16:24;8.40;99.90
4695;DHT22;2361;49.540;8.390;2023-12-20T14:18:46;8.40;99.90
4695;DHT22;2361;49.540;8.390;2023-12-20T14:21:08;8.40;99.90
4695;DHT22;2361;49.540;8.390;2023-12-20T14:23:31;8.40;99.90
4695;DHT22;2361;49.540;8.390;2023-12-20T14:25:55;8.40;99.90
4695;DHT22;2361;49.540;8.390;2023-12-20T14:28:20;8.40;99.90
4695;DHT22;2361;49.540;8.390;2023-12-20T14:30:42;8.40;99.90
4695;DHT22;2361;49.540;8.390;2023-12-20T14:33:04;8.40;99.90
4695;DHT22;2361;49.540;8.390;2023-12-20T14:35:26;8.40;99.90
4695;DHT22;2361;49.540;8.390;2023-12-20T14:37:48;8.40;99.90
4695;DHT22;2361;49.540;8.390;2023-12-20T14:40:11;8.40;99.90
4695;DHT22;2361;49.540;8.390;2023-12-20T14:42:37;8.30;99.90
4695;DHT22;2361;49.540;8.390;2023-12-20T14:44:59;8.30;99.90
4695;DHT22;2361;49.540;8.390;2023-12-20T14:47:21;8.30;99.90
4695;DHT22;2361;49.540;8.390;2023-12-20T14:49:43;8.30;99.90
4695;DHT22;2361;49.540;8.390;2023-12-20T14:52:05;8.30;99.90
4695;DHT22;2361;49.540;8.390;2023-12-20T14:54:27;8.30;99.90
4695;DHT22;2361;49.540;8.390;2023-12-20T14:56:49;8.30;99.90
4695;DHT22;2361;49.540;8.390;2023-12-20T14:59:11;8.30;99.90
4695;DHT22;2361;49.540;8.390;2023-12-20T15:01:33;8.30;99.90
4695;DHT22;2361;49.540;8.390;2023-12-20T15:03:55;8.30;99.90
4695;DHT22;2361;49.540;8.390;2023-12-20T15:06:18;8.30;99.90
4695;DHT22;2361;49.540;8.390;2023-12-20T15:08:42;8.30;99.90
4695;DHT22;2361;49.540;8.390;2023-12-20T15:11:03;8.20;99.90
4695;DHT22;2361;49.540;8.390;2023-12-20T15:13:25;8.20;99.90
4695;DHT22;2361;49.540;8.390;2023-12-20T15:15:47;8.20;99.90
4695;DHT22;2361;49.540;8.390;2023-12-20T15:18:09;8.20;99.90
4695;DHT22;2361;49.540;8.390;2023-12-20T15:20:31;8.10;99.90
4695;DHT22;2361;49.540;8.390;2023-12-20T15:22:55;8.10;99.90
4695;DHT22;2361;49.540;8.390;2023-12-20T15:25:20;8.10;99.90
4695;DHT22;2361;49.540;8.390;2023-12-20T15:27:43;8.00;99.90
4695;DHT22;2361;49.540;8.390;2023-12-20T15:30:08;8.00;99.90
4695;DHT22;2361;49.540;8.390;2023-12-20T15:32:31;8.00;99.90
4695;DHT22;2361;49.540;8.390;2023-12-20T15:34:54;8.00;99.90
4695;DHT22;2361;49.540;8.390;2023-12-20T15:37:16;8.00;99.90
4695;DHT22;2361;49.540;8.390;2023-12-20T15:39:38;7.90;99.90
4695;DHT22;2361;49.540;8.390;2023-12-20T15:42:00;7.90;99.90
4695;DHT22;2361;49.540;8.390;2023-12-20T15:44:22;7.90;99.90
4695;DHT22;2361;49.540;8.390;2023-12-20T15:46:44;7.90;99.90
4695;DHT22;2361;49.540;8.390;2023-12-20T15:49:06;7.80;99.90
4695;DHT22;2361;49.540;8.390;2023-12-20T15:51:28;7.80;99.90